| time (UTC) | temp F | wind direction | speed knots | gust knots | rain 1hr in | rain 24hr in | rain mn in | humidity % | barometer mb |
| 20260507153008 | 54 | 360 | 2.6 | 13.0 | 0.00 | 0.65 | 0.00 | 50 | 1008.1 |
| 20260507151517 | 53 | 360 | 1.7 | 9.6 | 0.00 | 0.65 | 0.00 | 55 | 1008.0 |
| 20260507150018 | 52 | 360 | 2.6 | 8.7 | 0.00 | 0.65 | 0.00 | 54 | 1008.3 |
| 20260507144523 | 52 | 360 | 2.6 | 7.0 | 0.00 | 0.65 | 0.00 | 54 | 1008.4 |
| 20260507143025 | 51 | 98 | 1.7 | 6.1 | 0.00 | 0.65 | 0.00 | 63 | 1008.4 |
| 20260507141515 | 51 | 140 | 0.9 | 5.2 | 0.00 | 0.65 | 0.00 | 67 | 1008.3 |
| 20260507140019 | 48 | 229 | 0.9 | 5.2 | 0.00 | 0.65 | 0.00 | 76 | 1008.3 |
| 20260507134520 | 49 | 87 | 1.7 | 10.4 | 0.00 | 0.65 | 0.00 | 74 | 1008.4 |
| 20260507133024 | 48 | 360 | 0.9 | 9.6 | 0.00 | 0.65 | 0.00 | 75 | 1008.5 |
| 20260507131528 | 47 | 321 | 1.7 | 3.5 | 0.00 | 0.65 | 0.00 | 78 | 1008.6 |
| 20260507130011 | 47 | 294 | 0.0 | 8.7 | 0.00 | 0.65 | 0.00 | 83 | 1008.7 |
| 20260507124520 | 46 | 60 | 0.9 | 4.3 | 0.00 | 0.65 | 0.00 | 84 | 1008.8 |
| 20260507123025 | 46 | 360 | 0.9 | 4.3 | 0.00 | 0.65 | 0.00 | 84 | 1008.6 |
| 20260507121524 | 45 | 360 | 0.0 | 3.5 | 0.00 | 0.65 | 0.00 | 87 | 1008.4 |
| 20260507120029 | 44 | 360 | 0.9 | 3.5 | 0.00 | 0.65 | 0.00 | 89 | 1008.5 |
| 20260507114517 | 43 | 360 | 0.0 | 2.6 | 0.00 | 0.65 | 0.00 | 92 | 1008.6 |
| 20260507113026 | 42 | 360 | 0.9 | 3.5 | 0.00 | 0.65 | 0.00 | 93 | 1008.5 |
| 20260507111526 | 41 | 57 | 0.9 | 3.5 | 0.00 | 0.65 | 0.00 | 96 | 1008.5 |
| 20260507110026 | 40 | 19 | 0.0 | 2.6 | 0.00 | 0.65 | 0.00 | 97 | 1008.5 |
| 20260507104527 | 39 | 50 | 0.0 | 0.9 | 0.00 | 0.65 | 0.00 | 97 | 1008.6 |
| 20260507103017 | 39 | 50 | 0.0 | 1.7 | 0.00 | 0.65 | 0.00 | 96 | 1008.2 |
| 20260507101520 | 39 | 106 | 0.9 | 2.6 | 0.00 | 0.65 | 0.00 | 97 | 1008.2 |
| 20260507100026 | 38 | 51 | 0.9 | 1.7 | 0.00 | 0.65 | 0.00 | 96 | 1008.3 |
| 20260507094515 | 39 | 51 | 0.9 | 1.7 | 0.00 | 0.65 | 0.00 | 95 | 1008.3 |
| 20260507093016 | 39 | 51 | 0.0 | 2.6 | 0.00 | 0.65 | 0.00 | 95 | 1008.6 |
| 20260507091515 | 40 | 137 | 0.0 | 2.6 | 0.00 | 0.65 | 0.00 | 96 | 1008.5 |
| 20260507090006 | 40 | 55 | 0.9 | 1.7 | 0.00 | 0.65 | 0.00 | 95 | 1008.3 |
| 20260507084532 | 41 | 178 | 0.0 | 2.6 | 0.00 | 0.65 | 0.00 | 95 | 1008.5 |
| 20260507083016 | 41 | 154 | 0.0 | 1.7 | 0.00 | 0.65 | 0.00 | 95 | 1008.0 |
| 20260507081515 | 41 | 154 | 0.0 | 1.7 | 0.00 | 0.65 | 0.00 | 95 | 1008.0 |
| 20260507080017 | 42 | 154 | 0.0 | 1.7 | 0.00 | 0.65 | 0.00 | 96 | 1008.1 |
| 20260507074507 | 42 | 149 | 0.9 | 2.6 | 0.00 | 0.65 | 0.00 | 95 | 1008.1 |
| 20260507073012 | 42 | 149 | 0.0 | 1.7 | 0.00 | 0.65 | 0.00 | 95 | 1007.7 |
| 20260507071521 | 43 | 149 | 0.0 | 4.3 | 0.00 | 0.65 | 0.00 | 95 | 1007.1 |
| 20260507070016 | 43 | 233 | 0.9 | 2.6 | 0.00 | 0.65 | 0.00 | 95 | 1007.1 |
| 20260507064519 | 43 | 173 | 0.9 | 4.3 | 0.00 | 0.65 | 0.00 | 95 | 1007.6 |
| 20260507063010 | 43 | 171 | 1.7 | 4.3 | 0.00 | 0.65 | 0.00 | 94 | 1007.5 |
| 20260507061512 | 44 | 217 | 0.0 | 6.1 | 0.00 | 0.65 | 0.00 | 94 | 1007.2 |
| 20260507060021 | 44 | 250 | 0.9 | 4.3 | 0.00 | 0.65 | 0.00 | 95 | 1007.3 |
| 20260507054520 | 44 | 138 | 0.9 | 4.3 | 0.00 | 0.65 | 0.00 | 95 | 1007.4 |
| 20260507053022 | 43 | 205 | 0.9 | 6.1 | 0.00 | 0.65 | 0.00 | 95 | 1007.3 |
| 20260507051512 | 44 | 201 | 0.0 | 3.5 | 0.00 | 0.65 | 0.00 | 95 | 1007.6 |
| 20260507050034 | 44 | 208 | 0.0 | 4.3 | 0.00 | 0.65 | 0.00 | 95 | 1007.6 |
| 20260507044518 | 44 | 216 | 0.0 | 3.5 | 0.00 | 0.65 | 0.00 | 95 | 1007.5 |
| 20260507043022 | 44 | 173 | 0.9 | 5.2 | 0.00 | 0.65 | 0.00 | 96 | 1007.2 |
| 20260507041519 | 44 | 191 | 0.9 | 3.5 | 0.01 | 0.65 | 0.00 | 96 | 1007.2 |
| 20260507040013 | 44 | 188 | 0.9 | 4.3 | 0.01 | 0.65 | 0.00 | 96 | 1007.1 |
| 20260507034515 | 45 | 94 | 0.0 | 7.8 | 0.02 | 0.65 | 0.65 | 95 | 1007.2 |
| 20260507033025 | 45 | 179 | 0.9 | 9.6 | 0.02 | 0.65 | 0.65 | 95 | 1007.3 |
| 20260507031523 | 45 | 192 | 1.7 | 7.0 | 0.01 | 0.64 | 0.64 | 94 | 1007.3 |
| 20260507030021 | 45 | 23 | 2.6 | 7.8 | 0.01 | 0.64 | 0.64 | 93 | 1007.2 |
| 20260507024516 | 46 | 213 | 2.6 | 8.7 | 0.01 | 0.63 | 0.63 | 94 | 1007.4 |
| 20260507023021 | 47 | 252 | 2.6 | 8.7 | 0.02 | 0.63 | 0.63 | 94 | 1007.3 |
| 20260507021529 | 47 | 190 | 1.7 | 13.0 | 0.03 | 0.63 | 0.63 | 94 | 1007.4 |
| 20260507020022 | 47 | 37 | 2.6 | 6.1 | 0.03 | 0.63 | 0.63 | 95 | 1007.0 |
| 20260507014523 | 48 | 213 | 0.9 | 7.8 | 0.02 | 0.62 | 0.62 | 95 | 1007.0 |
| 20260507013021 | 48 | 155 | 1.7 | 8.7 | 0.01 | 0.61 | 0.61 | 94 | 1006.9 |
| 20260507011523 | 49 | 352 | 0.9 | 7.8 | 0.01 | 0.60 | 0.60 | 94 | 1006.8 |
| 20260507010032 | 50 | 13 | 1.7 | 6.1 | 0.01 | 0.60 | 0.60 | 94 | 1006.5 |
| 20260507004527 | 50 | 188 | 0.9 | 7.0 | 0.01 | 0.60 | 0.60 | 94 | 1006.4 |
| 20260507003026 | 51 | 202 | 0.9 | 5.2 | 0.05 | 0.60 | 0.60 | 94 | 1006.1 |
| 20260507001521 | 52 | 211 | 0.9 | 7.8 | 0.05 | 0.58 | 0.58 | 94 | 1005.9 |
| 20260507000006 | 53 | 219 | 1.7 | 5.2 | 0.06 | 0.58 | 0.58 | 93 | 1005.7 |
| 20260506234508 | 55 | 227 | 0.9 | 7.8 | 0.06 | 0.58 | 0.58 | 93 | 1005.6 |
| 20260506233013 | 58 | 9 | 3.5 | 7.0 | 0.09 | 0.55 | 0.55 | 96 | 1005.2 |
| 20260506231520 | 58 | 238 | 0.0 | 3.5 | 0.11 | 0.54 | 0.54 | 96 | 1005.0 |
| 20260506230022 | 58 | 313 | 0.0 | 1.7 | 0.11 | 0.52 | 0.52 | 96 | 1005.1 |
| 20260506224507 | 58 | 313 | 0.9 | 3.5 | 0.11 | 0.52 | 0.52 | 96 | 1005.0 |
| 20260506223008 | 58 | 18 | 0.9 | 2.6 | 0.04 | 0.46 | 0.46 | 97 | 1005.0 |
| 20260506221512 | 59 | 150 | 0.0 | 1.7 | 0.02 | 0.43 | 0.43 | 97 | 1005.0 |
| 20260506220018 | 59 | 150 | 0.0 | 1.7 | 0.03 | 0.44 | 0.42 | 97 | 1005.1 |
| 20260506214523 | 59 | 124 | 0.0 | 1.7 | 0.08 | 0.45 | 0.42 | 97 | 1005.1 |
| 20260506213004 | 59 | 247 | 0.9 | 2.6 | 0.14 | 0.48 | 0.42 | 97 | 1005.1 |
| 20260506211508 | 59 | 183 | 0.9 | 4.3 | 0.16 | 0.48 | 0.41 | 96 | 1005.3 |
| 20260506210030 | 58 | 174 | 0.0 | 1.7 | 0.15 | 0.46 | 0.39 | 96 | 1005.2 |
| 20260506204523 | 58 | 174 | 0.0 | 0.9 | 0.11 | 0.41 | 0.34 | 96 | 1005.4 |
| 20260506203003 | 58 | 171 | 0.0 | 2.6 | 0.08 | 0.35 | 0.28 | 96 | 1005.5 |
| 20260506201510 | 59 | 185 | 0.0 | 2.6 | 0.07 | 0.32 | 0.25 | 96 | 1005.6 |
| 20260506200012 | 59 | 84 | 0.9 | 2.6 | 0.08 | 0.31 | 0.24 | 96 | 1005.8 |
| 20260506194518 | 59 | 183 | 0.9 | 1.7 | 0.08 | 0.30 | 0.23 | 96 | 1006.1 |
| 20260506193036 | 59 | 249 | 0.0 | 2.6 | 0.06 | 0.27 | 0.20 | 96 | 1006.2 |
| 20260506191507 | 59 | 240 | 0.0 | 2.6 | 0.05 | 0.25 | 0.18 | 95 | 1006.2 |
| 20260506190010 | 59 | 216 | 0.9 | 5.2 | 0.05 | 0.23 | 0.16 | 95 | 1006.5 |
| 20260506184516 | 59 | 161 | 0.9 | 7.0 | 0.06 | 0.22 | 0.15 | 95 | 1006.5 |
| 20260506183021 | 59 | 175 | 0.9 | 4.3 | 0.08 | 0.21 | 0.14 | 94 | 1006.8 |
| 20260506181536 | 59 | 194 | 0.9 | 3.5 | 0.09 | 0.20 | 0.13 | 94 | 1007.1 |
| 20260506180010 | 60 | 188 | 0.9 | 2.6 | 0.09 | 0.18 | 0.11 | 94 | 1007.3 |
| 20260506174510 | 60 | 128 | 0.9 | 2.6 | 0.09 | 0.16 | 0.09 | 93 | 1007.3 |
| 20260506173024 | 60 | 11 | 0.0 | 1.7 | 0.06 | 0.13 | 0.06 | 91 | 1007.4 |
| 20260506171528 | 61 | 11 | 0.0 | 1.7 | 0.04 | 0.11 | 0.04 | 89 | 1007.4 |
| 20260506170026 | 61 | 146 | 0.0 | 1.7 | 0.02 | 0.09 | 0.02 | 89 | 1007.6 |
| 20260506164511 | 62 | 250 | 0.0 | 0.9 | 0.00 | 0.07 | 0.00 | 87 | 1007.5 |
| 20260506163017 | 63 | 250 | 0.0 | 1.7 | 0.00 | 0.07 | 0.00 | 83 | 1007.6 |
| 20260506161521 | 62 | 250 | 0.0 | 2.6 | 0.00 | 0.07 | 0.00 | 83 | 1007.7 |
| 20260506160024 | 62 | 212 | 0.0 | 1.7 | 0.00 | 0.07 | 0.00 | 83 | 1007.9 |
| 20260506154529 | 62 | 93 | 0.0 | 1.7 | 0.00 | 0.07 | 0.00 | 83 | 1008.6 |